Stacje pogodowe na całym świecie

Reklama
Isola Di Salina, Włochy (16415): temperatura & temperatura punktu rosy: 12.09.2018 18:00:00 - 18.09.2018 18:00:00 (CEST)Isola Di Salina, Włochy (16415): prędkość wiatru: 12.09.2018 18:00:00 - 18.09.2018 18:00:00 (CEST)Isola Di Salina, Włochy (16415): kierunek wiatru: 12.09.2018 18:00:00 - 18.09.2018 18:00:00 (CEST)Isola Di Salina, Włochy (16415): ciśnienie zredukowane do poziomu morza: 12.09.2018 18:00:00 - 18.09.2018 18:00:00 (CEST)Isola Di Salina, Włochy (16415): opady: 12.09.2018 18:00:00 - 18.09.2018 18:00:00 (CEST)
Data i godzina tt [°C] td [°C] ff [km/h] ff [kt] dd ppp [hPa] rr [mm]
18.09.2018 18:00:00 - - - - - - -
18.09.2018 17:00:00 25,4 23,8 4 2 NNE 1019,1 -
18.09.2018 16:00:00 24,9 23,3 5 3 N 1019,4 -
18.09.2018 15:00:00 25,4 23,8 4 2 SE 1019,5 -
18.09.2018 14:00:00 25,5 23,9 4 2 N 1020,0 0,0
18.09.2018 13:00:00 25,5 23,9 2 1 NE 1020,1 -
18.09.2018 12:00:00 25,8 24,0 4 2 N 1020,4 -
18.09.2018 11:00:00 25,9 24,3 8 4 ESE 1020,1 -
18.09.2018 10:00:00 25,2 23,8 4 2 E 1020,3 -
18.09.2018 09:00:00 24,6 23,7 4 2 ESE 1020,0 -
18.09.2018 08:00:00 22,9 22,2 9 5 S 1019,9 0,0
18.09.2018 07:00:00 21,8 21,1 8 4 S 1019,8 -
18.09.2018 06:00:00 22,1 21,5 5 3 S 1019,6 -
18.09.2018 05:00:00 21,9 21,3 5 3 E 1019,4 -
18.09.2018 04:00:00 21,2 20,3 4 2 WNW 1019,4 -
18.09.2018 03:00:00 21,5 20,6 2 1 WNW 1019,4 -
18.09.2018 02:00:00 21,9 21,0 4 2 SW 1019,7 0,0
18.09.2018 01:00:00 22,1 21,2 8 4 S 1019,7 -
18.09.2018 00:00:00 22,2 21,1 5 3 S 1020,1 -
17.09.2018 23:00:00 22,1 20,9 4 2 SSW 1020,3 -
17.09.2018 22:00:00 22,6 21,4 8 4 S 1020,3 -
17.09.2018 21:00:00 22,7 21,3 4 2 E 1020,2 -
17.09.2018 20:00:00 22,8 21,0 2 1 N 1019,9 -
17.09.2018 19:00:00 23,8 21,3 4 2 N 1019,8 -
17.09.2018 18:00:00 25,1 22,1 4 2 N 1020,0 -
17.09.2018 17:00:00 25,6 22,6 8 4 N 1019,9 -
17.09.2018 16:00:00 25,8 22,0 9 5 N 1020,1 -
17.09.2018 15:00:00 26,5 23,5 8 4 N 1020,7 -
17.09.2018 14:00:00 26,0 22,6 5 3 ENE 1021,0 0,0
17.09.2018 13:00:00 26,0 21,8 8 4 ESE 1021,2 -
17.09.2018 12:00:00 25,9 22,5 9 5 ESE 1021,3 -
17.09.2018 11:00:00 26,3 23,3 8 4 SE 1021,6 -
17.09.2018 10:00:00 25,7 23,5 8 4 SE 1021,7 -
17.09.2018 09:00:00 24,4 23,0 5 3 ESE 1021,4 -
17.09.2018 08:00:00 22,6 21,9 5 3 ENE 1021,4 0,0
17.09.2018 07:00:00 21,7 21,0 5 3 NE 1021,1 -
17.09.2018 06:00:00 21,3 20,8 4 2 N 1020,9 -
17.09.2018 05:00:00 21,3 20,8 5 3 NW 1020,9 -
17.09.2018 04:00:00 21,1 20,6 4 2 W 1021,3 -
17.09.2018 03:00:00 21,2 20,5 2 1 WNW 1021,3 -
17.09.2018 02:00:00 21,3 20,6 4 2 SSW 1021,3 0,0
17.09.2018 01:00:00 21,4 20,5 2 1 S 1021,7 -
17.09.2018 00:00:00 21,9 20,8 0 0 N 1021,8 -
16.09.2018 23:00:00 22,1 21,0 0 0 N 1022,2 -
16.09.2018 22:00:00 22,6 21,4 0 0 N 1022,1 -
16.09.2018 21:00:00 23,1 21,8 4 2 E 1022,0 -
16.09.2018 20:00:00 23,2 21,9 4 2 NNW 1021,6 0,0
16.09.2018 19:00:00 23,7 22,1 8 4 NNW 1021,6 -
16.09.2018 18:00:00 24,8 22,8 5 3 N 1021,2 -
16.09.2018 17:00:00 25,7 23,1 5 3 N 1021,1 -
16.09.2018 16:00:00 26,4 22,8 8 4 N 1021,4 -
16.09.2018 15:00:00 26,4 23,0 5 3 NE 1021,9 -
16.09.2018 14:00:00 26,3 21,7 5 3 NE 1022,2 0,0
16.09.2018 13:00:00 26,7 22,5 5 3 NNE 1022,5 -
16.09.2018 12:00:00 26,0 23,8 5 3 N 1022,7 -
16.09.2018 11:00:00 25,2 23,4 8 4 NNW 1023,2 -
16.09.2018 10:00:00 24,6 23,2 4 2 NW 1022,7 -
16.09.2018 09:00:00 23,6 22,9 5 3 NW 1022,0 -
16.09.2018 08:00:00 21,9 21,3 4 2 W 1021,9 0,0
16.09.2018 07:00:00 20,8 20,3 2 1 W 1021,5 -
16.09.2018 06:00:00 21,0 20,5 4 2 W 1021,0 -
16.09.2018 05:00:00 21,0 20,3 5 3 W 1021,0 -
16.09.2018 04:00:00 21,1 20,4 5 3 W 1021,5 -
16.09.2018 03:00:00 21,2 20,3 4 2 W 1021,7 -
16.09.2018 02:00:00 21,4 20,5 2 1 SSE 1021,7 0,0
16.09.2018 01:00:00 21,7 20,8 5 3 W 1022,2 -
16.09.2018 00:00:00 21,7 20,6 5 3 W 1021,9 -
15.09.2018 23:00:00 22,0 21,1 5 3 W 1021,8 -
15.09.2018 22:00:00 22,2 21,1 5 3 W 1021,6 -
15.09.2018 21:00:00 22,5 21,3 5 3 WNW 1021,2 -
15.09.2018 20:00:00 23,0 21,6 5 3 W 1020,7 0,0
15.09.2018 19:00:00 23,6 22,0 9 5 NW 1020,4 -
15.09.2018 18:00:00 24,1 22,5 9 5 NW 1020,2 -
15.09.2018 17:00:00 24,6 22,6 11 6 NW 1020,1 -
15.09.2018 16:00:00 24,8 22,4 11 6 NW 1020,3 -
15.09.2018 15:00:00 25,6 22,4 9 5 NW 1020,4 -
15.09.2018 14:00:00 25,3 20,9 11 6 NW 1020,6 0,0
15.09.2018 13:00:00 25,9 21,3 11 6 NW 1020,5 -
15.09.2018 12:00:00 25,7 20,7 11 6 NW 1020,4 -
15.09.2018 11:00:00 25,4 22,0 8 4 WNW 1020,2 -
15.09.2018 10:00:00 24,6 22,0 9 5 NW 1019,8 -
15.09.2018 09:00:00 24,0 22,6 4 2 NNW 1019,2 -
15.09.2018 08:00:00 22,1 21,2 5 3 WNW 1019,0 0,0
15.09.2018 07:00:00 20,8 19,7 5 3 WNW 1018,3 -
15.09.2018 06:00:00 20,9 19,7 5 3 W 1018,0 -
15.09.2018 05:00:00 21,1 19,7 4 2 WNW 1017,8 -
15.09.2018 04:00:00 21,4 20,2 4 2 WNW 1017,7 -
15.09.2018 03:00:00 21,6 20,4 4 2 NW 1017,8 -
15.09.2018 02:00:00 21,9 20,7 5 3 NNW 1017,9 0,0
15.09.2018 01:00:00 21,9 20,5 5 3 NNW 1017,9 -
15.09.2018 00:00:00 21,8 20,4 5 3 NW 1017,7 -
14.09.2018 23:00:00 21,9 20,3 4 2 NW 1017,5 -
14.09.2018 22:00:00 22,1 19,8 4 2 NNW 1017,4 -
14.09.2018 21:00:00 22,6 20,1 4 2 NNW 1017,2 -
14.09.2018 20:00:00 23,2 18,7 5 3 NE 1016,7 0,0
14.09.2018 19:00:00 23,8 19,7 5 3 ENE 1016,3 -
14.09.2018 18:00:00 24,2 20,5 8 4 ENE 1015,8 -
14.09.2018 17:00:00 25,1 19,9 5 3 ESE 1015,5 -
14.09.2018 16:00:00 25,4 19,9 8 4 SSE 1015,5 -
14.09.2018 15:00:00 25,6 20,1 11 6 SSE 1015,6 -
14.09.2018 14:00:00 25,9 19,7 11 6 SSE 1015,9 0,0
14.09.2018 13:00:00 26,2 20,7 13 7 SSE 1016,2 -
14.09.2018 12:00:00 24,8 20,8 13 7 SSE 1016,2 -
14.09.2018 11:00:00 23,8 21,3 13 7 SSE 1016,1 -
14.09.2018 10:00:00 22,8 21,0 13 7 SSE 1015,6 -
14.09.2018 09:00:00 22,7 21,3 13 7 SSE 1015,1 -
14.09.2018 08:00:00 21,8 20,7 13 7 S 1015,0 -
14.09.2018 07:00:00 21,3 20,1 8 4 S 1014,8 -
14.09.2018 06:00:00 21,2 19,8 11 6 S 1014,7 -
14.09.2018 05:00:00 20,8 18,5 4 2 S 1014,5 -
14.09.2018 04:00:00 21,6 19,6 4 2 ESE 1014,9 -
14.09.2018 03:00:00 21,6 17,5 15 8 S 1015,0 -
14.09.2018 02:00:00 21,4 15,8 11 6 SSW 1015,3 -
14.09.2018 01:00:00 20,6 15,5 13 7 S 1015,6 -
14.09.2018 00:00:00 20,3 18,0 11 6 W 1016,5 -
13.09.2018 23:00:00 20,6 18,8 5 3 WNW 1016,2 -
13.09.2018 22:00:00 20,6 18,8 13 7 WNW 1016,2 -
13.09.2018 21:00:00 21,7 18,8 15 8 WNW 1016,4 -
13.09.2018 20:00:00 22,0 19,9 28 15 NW 1016,0 -
13.09.2018 19:00:00 22,9 21,3 31 17 NNW 1015,5 -
13.09.2018 18:00:00 24,3 22,3 28 15 NNW 1015,2 -
13.09.2018 17:00:00 24,4 22,6 26 14 NW 1015,6 -
13.09.2018 16:00:00 24,7 22,7 18 10 NW 1015,9 -
13.09.2018 15:00:00 25,0 22,6 16 9 NW 1016,0 -
13.09.2018 14:00:00 25,4 21,6 21 11 NW 1016,4 0,0
13.09.2018 13:00:00 25,5 22,9 15 8 WNW 1016,6 -
13.09.2018 12:00:00 26,5 23,5 11 6 WNW 1016,8 -
13.09.2018 11:00:00 26,0 21,4 4 2 E 1016,7 -
13.09.2018 10:00:00 24,7 21,6 4 2 NE 1016,5 -
13.09.2018 09:00:00 23,7 21,7 4 2 ENE 1016,3 -
13.09.2018 08:00:00 22,6 18,5 4 2 SSW 1016,4 0,0
13.09.2018 07:00:00 21,8 15,8 4 2 SSW 1016,5 -
13.09.2018 06:00:00 22,0 14,5 4 2 SSW 1016,7 -
13.09.2018 05:00:00 22,2 14,0 4 2 WSW 1016,8 -
13.09.2018 04:00:00 22,5 16,2 2 1 S 1017,1 -
13.09.2018 03:00:00 22,3 20,2 8 4 W 1017,4 -
13.09.2018 02:00:00 22,4 19,1 8 4 W 1018,0 -
13.09.2018 01:00:00 22,3 18,4 5 3 W 1018,7 -
13.09.2018 00:00:00 22,6 17,4 5 3 NW 1019,1 -
12.09.2018 23:00:00 23,0 18,0 8 4 SW 1019,2 -
12.09.2018 22:00:00 23,1 20,0 5 3 WNW 1019,3 -
12.09.2018 21:00:00 23,3 19,4 11 6 WNW 1019,5 -
12.09.2018 20:00:00 23,6 18,2 13 7 WNW 1019,4 0,0
12.09.2018 19:00:00 24,4 15,8 9 5 WNW 1019,7 -
12.09.2018 18:00:00 25,3 19,6 13 7 NW 1019,7 -

tt = temperatura
td = temperatura punktu rosy
ff = prędkość wiatru
dd = kierunek wiatru
ppp = ciśnienie zredukowane do poziomu morza
rr = opady

Otoczenie

MeteoGroup informuje, że na swoich stronach www stosuje pliki cookies (tzw. ciasteczka). Aby dowiedzieć się więcej na ich temat proszę kliknąć tutaj.